Time;durP1;ratioP1;P1;durP2;ratioP2;P2;SDS_P1;SDS_P2;PMS_P1;PMS_P2;Temp;Humidity;BMP_temperature;BMP_pressure;BME280_temperature;BME280_humidity;BME280_pressure;Samples;Min_cycle;Max_cycle;Signal;HPM_P1;HPM_P2
2023/08/14 00:00:11;;;;;;;22.70;12.15;;;;;;;;;;5064203;28;20031;-70
2023/08/14 00:02:39;;;;;;;21.38;10.82;;;;;;;;;;5084358;28;20028;-70
2023/08/14 00:05:06;;;;;;;21.90;11.38;;;;;;;;;;5077213;28;20127;-70
2023/08/14 00:07:32;;;;;;;21.27;11.93;;;;;;;;;;5072101;28;20054;-69
2023/08/14 00:09:59;;;;;;;23.35;11.13;;;;;;;;;;5057713;28;20503;-70
2023/08/14 00:12:25;;;;;;;18.88;11.95;;;;;;;;;;5080938;28;20119;-70
2023/08/14 00:14:51;;;;;;;21.60;11.70;;;;;;;;;;5056139;28;20040;-71
2023/08/14 00:17:17;;;;;;;19.85;11.55;;;;;;;;;;5071671;28;20035;-70
2023/08/14 00:19:43;;;;;;;19.95;12.23;;;;;;;;;;5055116;28;20024;-69
2023/08/14 00:22:11;;;;;;;24.05;11.68;;;;;;;;;;5060087;28;20039;-70
2023/08/14 00:24:38;;;;;;;25.50;13.27;;;;;;;;;;5079621;28;20397;-70
2023/08/14 00:27:04;;;;;;;20.30;12.43;;;;;;;;;;5070549;28;20056;-70
2023/08/14 00:29:30;;;;;;;23.40;12.63;;;;;;;;;;5057722;28;20071;-69
2023/08/14 00:31:56;;;;;;;23.88;12.65;;;;;;;;;;5052194;28;20044;-69
2023/08/14 00:34:22;;;;;;;20.23;12.60;;;;;;;;;;5075664;28;20093;-70
2023/08/14 00:36:49;;;;;;;24.30;13.48;;;;;;;;;;5056430;28;20048;-70
2023/08/14 00:39:15;;;;;;;25.40;13.38;;;;;;;;;;5067563;28;20123;-70
2023/08/14 00:41:41;;;;;;;25.73;13.50;;;;;;;;;;5053072;28;20065;-69
2023/08/14 00:44:07;;;;;;;25.88;14.05;;;;;;;;;;5038675;28;20036;-70
2023/08/14 00:46:34;;;;;;;22.90;14.63;;;;;;;;;;5053029;28;20044;-73
2023/08/14 00:49:00;;;;;;;24.83;14.35;;;;;;;;;;5053219;28;20070;-69
2023/08/14 00:51:26;;;;;;;25.27;14.15;;;;;;;;;;5068348;28;20047;-69
2023/08/14 00:53:53;;;;;;;25.20;14.77;;;;;;;;;;5059911;28;20037;-70
2023/08/14 00:56:23;;;;;;;26.02;13.75;;;;;;;;;;5074021;28;20384;-69
2023/08/14 00:58:50;;;;;;;23.77;14.80;;;;;;;;;;5044210;28;20131;-69
2023/08/14 01:01:16;;;;;;;24.48;14.52;;;;;;;;;;5079023;28;20384;-69
2023/08/14 01:03:43;;;;;;;30.35;14.45;;;;;;;;;;5057800;28;20027;-70
2023/08/14 01:06:09;;;;;;;33.90;17.67;;;;;;;;;;5078971;28;20028;-69
2023/08/14 01:08:36;;;;;;;29.30;16.05;;;;;;;;;;5056169;28;20044;-69
2023/08/14 01:11:08;;;;;;;29.65;14.77;;;;;;;;;;5073879;28;20028;-70
2023/08/14 01:13:43;;;;;;;33.95;16.45;;;;;;;;;;5061413;28;20088;-70
2023/08/14 01:16:16;;;;;;;35.10;16.65;;;;;;;;;;5055797;28;20044;-70
2023/08/14 01:18:45;;;;;;;31.95;17.00;;;;;;;;;;5052444;28;20070;-69
2023/08/14 01:21:17;;;;;;;32.70;17.08;;;;;;;;;;5041963;28;20059;-69
2023/08/14 01:23:59;;;;;;;35.33;17.50;;;;;;;;;;5057606;28;20302;-70
2023/08/14 01:26:26;;;;;;;31.73;17.10;;;;;;;;;;5062983;28;20039;-70
2023/08/14 01:28:53;;;;;;;38.17;17.85;;;;;;;;;;5069626;28;20120;-70
2023/08/14 01:31:20;;;;;;;40.05;20.70;;;;;;;;;;5073914;28;20035;-70
2023/08/14 01:33:46;;;;;;;32.38;17.27;;;;;;;;;;5078228;28;20101;-70
2023/08/14 01:36:27;;;;;;;32.42;17.83;;;;;;;;;;5066345;28;20461;-70
2023/08/14 01:38:53;;;;;;;;;;;;;;;;;;5083376;28;20020;-70
2023/08/14 01:41:23;;;;;;;32.58;18.48;;;;;;;;;;5074507;28;20369;-70
2023/08/14 01:43:50;;;;;;;36.67;18.90;;;;;;;;;;5075918;28;20161;-69
2023/08/14 01:46:17;;;;;;;40.33;20.55;;;;;;;;;;5073173;28;20293;-70
2023/08/14 01:48:45;;;;;;;37.67;20.77;;;;;;;;;;5070690;28;20159;-69
2023/08/14 01:51:11;;;;;;;42.58;21.73;;;;;;;;;;5065078;28;20048;-70
2023/08/14 01:53:38;;;;;;;39.55;20.70;;;;;;;;;;5072926;28;20046;-71
2023/08/14 01:56:04;;;;;;;37.15;19.70;;;;;;;;;;5056885;28;20077;-71
2023/08/14 01:58:30;;;;;;;41.30;21.67;;;;;;;;;;5075490;28;20056;-69
2023/08/14 02:00:56;;;;;;;39.15;20.35;;;;;;;;;;5061883;28;20024;-70
2023/08/14 02:03:23;;;;;;;53.75;24.00;;;;;;;;;;5059995;28;20037;-69
2023/08/14 02:05:49;;;;;;;48.47;24.60;;;;;;;;;;5053976;28;20020;-70
2023/08/14 02:08:15;;;;;;;52.10;24.58;;;;;;;;;;5051041;28;20031;-70
2023/08/14 02:10:41;;;;;;;53.80;26.27;;;;;;;;;;5060871;28;20408;-71
2023/08/14 02:13:07;;;;;;;56.05;25.67;;;;;;;;;;5056958;28;20127;-71
2023/08/14 02:15:33;;;;;;;61.03;27.73;;;;;;;;;;5047590;28;20107;-69
2023/08/14 02:18:00;;;;;;;54.75;27.35;;;;;;;;;;5061840;28;20035;-70
2023/08/14 02:20:26;;;;;;;57.55;26.83;;;;;;;;;;5051810;28;20025;-70
2023/08/14 02:22:52;;;;;;;49.92;26.80;;;;;;;;;;5067073;28;20032;-69
2023/08/14 02:25:18;;;;;;;59.45;28.70;;;;;;;;;;5062459;28;20028;-69
2023/08/14 02:27:44;;;;;;;60.83;29.80;;;;;;;;;;5059563;28;20052;-69
2023/08/14 02:30:10;;;;;;;60.08;31.65;;;;;;;;;;5078272;28;20486;-70
2023/08/14 02:32:37;;;;;;;62.63;30.58;;;;;;;;;;5065072;28;20043;-70
2023/08/14 02:35:03;;;;;;;63.00;32.17;;;;;;;;;;5080547;28;20427;-70
2023/08/14 02:37:29;;;;;;;61.45;31.33;;;;;;;;;;5059838;28;20059;-70
2023/08/14 02:39:55;;;;;;;59.33;31.10;;;;;;;;;;5063878;28;20024;-69
2023/08/14 02:42:21;;;;;;;64.15;32.38;;;;;;;;;;5074851;28;20046;-69
2023/08/14 02:44:48;;;;;;;56.13;28.23;;;;;;;;;;5080955;28;20186;-70
2023/08/14 02:47:14;;;;;;;70.95;37.55;;;;;;;;;;5084037;28;20025;-70
2023/08/14 02:49:41;;;;;;;71.72;36.50;;;;;;;;;;5061875;28;20397;-70
2023/08/14 02:52:07;;;;;;;81.85;38.95;;;;;;;;;;5074486;28;20112;-69
2023/08/14 02:54:33;;;;;;;66.38;36.95;;;;;;;;;;5075159;28;20201;-70
2023/08/14 02:56:59;;;;;;;74.50;39.55;;;;;;;;;;5061197;28;20029;-69
2023/08/14 02:59:25;;;;;;;79.55;40.30;;;;;;;;;;5050939;28;20108;-68
2023/08/14 03:01:52;;;;;;;69.90;38.10;;;;;;;;;;5059626;28;20040;-70
2023/08/14 03:04:18;;;;;;;71.13;37.88;;;;;;;;;;5051840;28;20658;-70
2023/08/14 03:06:44;;;;;;;62.30;33.30;;;;;;;;;;5061714;28;20027;-70
2023/08/14 03:09:11;;;;;;;86.28;41.92;;;;;;;;;;5079447;28;20028;-71
2023/08/14 03:11:37;;;;;;;71.82;38.88;;;;;;;;;;5079504;28;20043;-71
2023/08/14 03:14:04;;;;;;;77.10;39.58;;;;;;;;;;5074735;28;20154;-72
2023/08/14 03:16:32;;;;;;;79.13;42.15;;;;;;;;;;5076946;28;20024;-70
2023/08/14 03:18:58;;;;;;;84.78;40.75;;;;;;;;;;5054719;28;20485;-71
2023/08/14 03:21:24;;;;;;;72.80;37.45;;;;;;;;;;5059913;28;20035;-70
2023/08/14 03:23:50;;;;;;;77.97;39.33;;;;;;;;;;5058002;28;20048;-69
2023/08/14 03:26:16;;;;;;;81.10;39.33;;;;;;;;;;5062071;28;20112;-70
2023/08/14 03:28:43;;;;;;;82.55;40.03;;;;;;;;;;5082550;28;20020;-70
2023/08/14 03:31:09;;;;;;;74.47;38.60;;;;;;;;;;5057975;28;20028;-70
2023/08/14 03:33:36;;;;;;;76.25;39.92;;;;;;;;;;5042655;28;20409;-71
2023/08/14 03:36:03;;;;;;;74.68;39.08;;;;;;;;;;5054708;28;20067;-70
2023/08/14 03:38:30;;;;;;;76.07;36.95;;;;;;;;;;5077104;28;20032;-70
2023/08/14 03:40:57;;;;;;;76.10;37.83;;;;;;;;;;5059744;28;20063;-70
2023/08/14 03:43:23;;;;;;;76.70;38.35;;;;;;;;;;5059300;28;20036;-70
2023/08/14 03:45:50;;;;;;;77.38;36.95;;;;;;;;;;5059232;28;20028;-71
2023/08/14 03:48:16;;;;;;;60.15;33.03;;;;;;;;;;5056286;28;20025;-71
2023/08/14 03:50:49;;;;;;;71.72;34.67;;;;;;;;;;5058112;28;20024;-70
2023/08/14 03:53:15;;;;;;;73.25;39.97;;;;;;;;;;5071104;28;20687;-71
2023/08/14 03:55:41;;;;;;;69.68;37.08;;;;;;;;;;5054491;28;20512;-71
2023/08/14 03:58:07;;;;;;;78.45;39.88;;;;;;;;;;5059888;28;20063;-70
2023/08/14 04:00:33;;;;;;;84.15;39.88;;;;;;;;;;5058990;28;20057;-69
2023/08/14 04:02:59;;;;;;;79.88;38.35;;;;;;;;;;5052175;28;20056;-71
2023/08/14 04:05:25;;;;;;;83.97;40.03;;;;;;;;;;5050143;28;20104;-70
2023/08/14 04:07:53;;;;;;;74.57;37.92;;;;;;;;;;5051844;28;20049;-71
2023/08/14 04:10:19;;;;;;;77.20;38.85;;;;;;;;;;5055206;28;20035;-71
2023/08/14 04:12:45;;;;;;;71.28;36.50;;;;;;;;;;5055697;28;20401;-70
2023/08/14 04:15:15;;;;;;;83.25;38.38;;;;;;;;;;5058094;28;20032;-70
2023/08/14 04:17:41;;;;;;;81.53;37.03;;;;;;;;;;5055152;28;20025;-70
2023/08/14 04:20:09;;;;;;;69.00;36.17;;;;;;;;;;5066675;28;20032;-70
2023/08/14 04:22:37;;;;;;;67.95;35.63;;;;;;;;;;5059815;28;20386;-70
2023/08/14 04:25:03;;;;;;;74.47;37.40;;;;;;;;;;5059283;28;20035;-70
2023/08/14 04:27:30;;;;;;;74.55;35.10;;;;;;;;;;5049463;28;20027;-70
2023/08/14 04:29:57;;;;;;;63.70;35.67;;;;;;;;;;5042807;28;20035;-70
2023/08/14 04:32:24;;;;;;;70.03;35.28;;;;;;;;;;5056595;28;20040;-70
2023/08/14 04:34:50;;;;;;;66.32;33.45;;;;;;;;;;5055452;28;20123;-70
2023/08/14 04:37:16;;;;;;;71.97;35.05;;;;;;;;;;5050542;28;20113;-69
2023/08/14 04:39:44;;;;;;;60.28;32.75;;;;;;;;;;5056444;28;20028;-70
2023/08/14 04:42:10;;;;;;;72.45;34.10;;;;;;;;;;5052327;28;20362;-72
2023/08/14 04:44:37;;;;;;;68.05;33.83;;;;;;;;;;5053694;28;20103;-70
2023/08/14 04:47:03;;;;;;;67.38;34.15;;;;;;;;;;5059126;28;20029;-70
2023/08/14 04:49:32;;;;;;;70.47;34.38;;;;;;;;;;5053434;28;20033;-70
2023/08/14 04:51:58;;;;;;;63.50;33.65;;;;;;;;;;5042540;28;20048;-70
2023/08/14 04:54:27;;;;;;;80.70;35.13;;;;;;;;;;5060939;28;20064;-70
2023/08/14 04:56:53;;;;;;;68.70;32.22;;;;;;;;;;5061122;28;20070;-70
2023/08/14 04:59:19;;;;;;;52.42;30.02;;;;;;;;;;5050706;28;20047;-70
2023/08/14 05:01:46;;;;;;;55.83;28.20;;;;;;;;;;5053276;28;20020;-71
2023/08/14 05:04:14;;;;;;;47.40;27.30;;;;;;;;;;5052563;28;20532;-70
2023/08/14 05:06:40;;;;;;;51.97;25.65;;;;;;;;;;5071361;28;20511;-70
2023/08/14 05:09:06;;;;;;;50.72;23.80;;;;;;;;;;5051779;28;20076;-70
2023/08/14 05:11:32;;;;;;;43.65;24.25;;;;;;;;;;5061968;28;20028;-70
2023/08/14 05:13:59;;;;;;;43.78;21.77;;;;;;;;;;5070344;28;20092;-70
2023/08/14 05:16:25;;;;;;;46.10;23.23;;;;;;;;;;5076313;28;20107;-70
2023/08/14 05:18:52;;;;;;;44.95;22.88;;;;;;;;;;5062924;28;20028;-70
2023/08/14 05:21:18;;;;;;;42.38;23.30;;;;;;;;;;5052895;28;20028;-70
2023/08/14 05:23:44;;;;;;;40.88;22.77;;;;;;;;;;5060608;28;20044;-70
2023/08/14 05:26:11;;;;;;;38.20;22.02;;;;;;;;;;5080753;28;20046;-71
2023/08/14 05:28:37;;;;;;;37.60;21.48;;;;;;;;;;5080633;28;20028;-70
2023/08/14 05:31:03;;;;;;;37.88;22.60;;;;;;;;;;5080395;28;20043;-70
2023/08/14 05:33:29;;;;;;;56.45;20.75;;;;;;;;;;5065045;28;20032;-70
2023/08/14 05:35:55;;;;;;;37.00;19.60;;;;;;;;;;5074575;28;20028;-69
2023/08/14 05:38:21;;;;;;;27.02;19.35;;;;;;;;;;5072606;28;20075;-70
2023/08/14 05:40:47;;;;;;;32.45;18.55;;;;;;;;;;5071139;28;20028;-70
2023/08/14 05:43:13;;;;;;;24.10;17.08;;;;;;;;;;5081868;28;20105;-70
2023/08/14 05:45:43;;;;;;;31.98;16.98;;;;;;;;;;5060144;28;20036;-71
2023/08/14 05:48:10;;;;;;;29.13;17.45;;;;;;;;;;5082278;28;20044;-70
2023/08/14 05:50:36;;;;;;;30.33;16.92;;;;;;;;;;5071220;28;20608;-69
2023/08/14 05:53:04;;;;;;;29.77;17.15;;;;;;;;;;5073723;28;20032;-69
2023/08/14 05:55:31;;;;;;;24.90;16.42;;;;;;;;;;5074633;28;20398;-70
2023/08/14 05:57:58;;;;;;;29.58;17.15;;;;;;;;;;5075489;28;20029;-69
2023/08/14 06:00:27;;;;;;;29.63;17.15;;;;;;;;;;5079162;28;20029;-69
2023/08/14 06:02:53;;;;;;;26.55;17.40;;;;;;;;;;5051807;28;20539;-70
2023/08/14 06:05:20;;;;;;;29.75;18.10;;;;;;;;;;5072991;28;20032;-69
2023/08/14 06:07:49;;;;;;;29.25;16.65;;;;;;;;;;5081089;28;20032;-69
2023/08/14 06:10:15;;;;;;;24.27;15.77;;;;;;;;;;5061806;28;20028;-71
2023/08/14 06:12:42;;;;;;;25.67;18.17;;;;;;;;;;5079056;28;21991;-70
2023/08/14 06:15:08;;;;;;;26.85;17.10;;;;;;;;;;5087851;28;20043;-70
2023/08/14 06:17:34;;;;;;;24.88;16.77;;;;;;;;;;5063987;28;20089;-70
2023/08/14 06:20:01;;;;;;;24.40;16.25;;;;;;;;;;5084788;28;20593;-70
2023/08/14 06:22:27;;;;;;;25.08;15.50;;;;;;;;;;5085249;28;20492;-68
2023/08/14 06:24:55;;;;;;;25.73;15.60;;;;;;;;;;5072604;28;20033;-69
2023/08/14 06:27:21;;;;;;;21.35;14.50;;;;;;;;;;5082476;28;20087;-69
2023/08/14 06:29:47;;;;;;;21.92;14.63;;;;;;;;;;5063457;28;20028;-69
2023/08/14 06:32:14;;;;;;;22.10;13.65;;;;;;;;;;5066974;28;20110;-70
2023/08/14 06:34:40;;;;;;;19.42;14.93;;;;;;;;;;5079872;28;20024;-70
2023/08/14 06:37:06;;;;;;;18.30;13.20;;;;;;;;;;5074974;28;20032;-71
2023/08/14 06:39:32;;;;;;;21.58;12.73;;;;;;;;;;5074572;28;20107;-69
2023/08/14 06:41:59;;;;;;;21.35;13.63;;;;;;;;;;5076195;28;20028;-69
2023/08/14 06:44:26;;;;;;;19.48;11.68;;;;;;;;;;5059078;28;20077;-69
2023/08/14 06:46:52;;;;;;;17.90;11.80;;;;;;;;;;5079062;28;20036;-70
2023/08/14 06:49:19;;;;;;;17.92;10.63;;;;;;;;;;5087166;28;20036;-69
2023/08/14 06:51:46;;;;;;;15.93;10.85;;;;;;;;;;5077158;28;20036;-73
2023/08/14 06:54:12;;;;;;;14.75;10.73;;;;;;;;;;5049242;28;20048;-69
2023/08/14 06:56:38;;;;;;;17.63;10.52;;;;;;;;;;5072848;28;20051;-69
2023/08/14 06:59:04;;;;;;;18.40;11.00;;;;;;;;;;5096976;28;20114;-71
2023/08/14 07:01:31;;;;;;;17.50;10.70;;;;;;;;;;5062872;28;20036;-70
2023/08/14 07:03:57;;;;;;;13.88;8.82;;;;;;;;;;5078109;28;20036;-70
2023/08/14 07:06:23;;;;;;;12.10;9.05;;;;;;;;;;5079724;28;20119;-69
2023/08/14 07:08:49;;;;;;;14.45;8.60;;;;;;;;;;5062193;28;20099;-69
2023/08/14 07:11:15;;;;;;;11.02;8.68;;;;;;;;;;5084916;28;20031;-70
2023/08/14 07:13:41;;;;;;;15.88;9.27;;;;;;;;;;5089046;28;20059;-70
2023/08/14 07:16:07;;;;;;;12.38;8.63;;;;;;;;;;5059554;28;20502;-70
2023/08/14 07:18:34;;;;;;;11.18;7.82;;;;;;;;;;5071451;28;20029;-70
2023/08/14 07:21:00;;;;;;;10.73;8.10;;;;;;;;;;5071298;28;20486;-70
2023/08/14 07:23:26;;;;;;;10.65;7.53;;;;;;;;;;5072190;28;20059;-70
2023/08/14 07:25:52;;;;;;;11.38;7.18;;;;;;;;;;5071786;28;20051;-70
2023/08/14 07:28:18;;;;;;;15.65;8.07;;;;;;;;;;5070013;28;20034;-69
2023/08/14 07:30:45;;;;;;;13.35;7.07;;;;;;;;;;5082072;28;20040;-70
2023/08/14 07:33:13;;;;;;;10.38;6.28;;;;;;;;;;5074415;28;20169;-70
2023/08/14 07:35:40;;;;;;;8.48;5.53;;;;;;;;;;5070960;28;20078;-70
2023/08/14 07:38:06;;;;;;;10.13;4.97;;;;;;;;;;5071119;28;20111;-68
2023/08/14 07:40:32;;;;;;;7.97;5.22;;;;;;;;;;5070636;28;20028;-69
2023/08/14 07:42:58;;;;;;;10.60;4.68;;;;;;;;;;5069731;28;20123;-70
2023/08/14 07:45:24;;;;;;;8.18;4.68;;;;;;;;;;5080968;28;20294;-70
2023/08/14 07:47:50;;;;;;;6.45;4.50;;;;;;;;;;5071557;28;20083;-70
2023/08/14 07:50:16;;;;;;;10.88;4.22;;;;;;;;;;5071024;28;20039;-70
2023/08/14 07:52:44;;;;;;;6.38;3.70;;;;;;;;;;5084955;28;20047;-71
2023/08/14 07:55:10;;;;;;;10.25;3.75;;;;;;;;;;5067381;28;20067;-70
2023/08/14 07:57:36;;;;;;;8.43;3.55;;;;;;;;;;5058140;28;20128;-70
2023/08/14 08:00:07;;;;;;;5.18;2.85;;;;;;;;;;5058328;28;20088;-69
2023/08/14 08:02:37;;;;;;;9.32;2.95;;;;;;;;;;5072622;28;20025;-69
2023/08/14 08:05:04;;;;;;;8.05;3.10;;;;;;;;;;5070966;28;20063;-70
2023/08/14 08:07:30;;;;;;;8.70;2.90;;;;;;;;;;5052260;28;20021;-69
2023/08/14 08:09:56;;;;;;;7.65;3.00;;;;;;;;;;5073181;28;20040;-69
2023/08/14 08:12:22;;;;;;;9.75;2.97;;;;;;;;;;5074165;28;20043;-70
2023/08/14 08:14:48;;;;;;;7.78;2.90;;;;;;;;;;5071523;28;20098;-69
2023/08/14 08:17:16;;;;;;;10.45;3.22;;;;;;;;;;5071120;28;20036;-71
2023/08/14 08:19:44;;;;;;;7.70;2.70;;;;;;;;;;5072213;28;20035;-70
2023/08/14 08:22:10;;;;;;;7.45;2.75;;;;;;;;;;5084781;28;20020;-69
2023/08/14 08:24:36;;;;;;;5.93;2.95;;;;;;;;;;5071494;28;20058;-69
2023/08/14 08:27:02;;;;;;;5.47;3.10;;;;;;;;;;5064896;28;20028;-70
2023/08/14 08:29:28;;;;;;;8.07;3.58;;;;;;;;;;5073774;28;20036;-69
2023/08/14 08:31:54;;;;;;;8.48;4.00;;;;;;;;;;5058981;28;20123;-70
2023/08/14 08:34:21;;;;;;;7.63;2.97;;;;;;;;;;5055146;28;20040;-70
2023/08/14 08:36:47;;;;;;;7.18;2.85;;;;;;;;;;5079515;28;20386;-69
2023/08/14 08:39:13;;;;;;;10.35;3.90;;;;;;;;;;5075559;28;20029;-70
2023/08/14 08:41:41;;;;;;;6.32;3.20;;;;;;;;;;5086303;28;20473;-70
2023/08/14 08:44:08;;;;;;;6.80;3.38;;;;;;;;;;5083140;28;20039;-73
2023/08/14 08:46:36;;;;;;;9.85;3.95;;;;;;;;;;5070043;28;20036;-71
2023/08/14 08:49:03;;;;;;;11.98;4.38;;;;;;;;;;5072421;28;20038;-71
2023/08/14 08:51:30;;;;;;;11.38;4.18;;;;;;;;;;5079105;28;20031;-70
2023/08/14 08:53:57;;;;;;;11.88;4.15;;;;;;;;;;5076436;28;20425;-71
2023/08/14 08:56:23;;;;;;;7.10;3.40;;;;;;;;;;5073795;28;20060;-71
2023/08/14 08:58:49;;;;;;;10.73;3.95;;;;;;;;;;5054492;28;20070;-71
2023/08/14 09:01:16;;;;;;;7.85;3.33;;;;;;;;;;5081289;28;20020;-70
2023/08/14 09:03:42;;;;;;;9.30;3.40;;;;;;;;;;5055877;28;20032;-70
2023/08/14 09:06:08;;;;;;;9.98;4.30;;;;;;;;;;5077679;28;20040;-70
2023/08/14 09:08:34;;;;;;;10.52;4.63;;;;;;;;;;5069103;28;20091;-70
2023/08/14 09:11:01;;;;;;;12.82;4.60;;;;;;;;;;5069263;28;20195;-70
2023/08/14 09:13:27;;;;;;;9.35;3.95;;;;;;;;;;5069392;28;20033;-70
2023/08/14 09:15:53;;;;;;;13.57;4.05;;;;;;;;;;5069328;28;20039;-70
2023/08/14 09:18:19;;;;;;;11.55;4.78;;;;;;;;;;5053280;28;20021;-70
2023/08/14 09:20:45;;;;;;;13.80;4.97;;;;;;;;;;5048100;28;20047;-70
2023/08/14 09:23:14;;;;;;;11.88;4.18;;;;;;;;;;5051431;28;20047;-69
2023/08/14 09:25:41;;;;;;;11.60;4.10;;;;;;;;;;5072637;28;20029;-70
2023/08/14 09:28:11;;;;;;;10.13;3.70;;;;;;;;;;5083807;28;20445;-71
2023/08/14 09:30:37;;;;;;;9.60;3.38;;;;;;;;;;5088574;28;20044;-71
2023/08/14 09:33:08;;;;;;;7.85;3.22;;;;;;;;;;5085193;28;20040;-70
2023/08/14 09:35:34;;;;;;;12.10;3.30;;;;;;;;;;5077209;28;20036;-70
2023/08/14 09:38:00;;;;;;;10.95;3.53;;;;;;;;;;5071463;28;20469;-70
2023/08/14 09:40:26;;;;;;;9.10;3.30;;;;;;;;;;5081038;28;20036;-72
2023/08/14 09:42:53;;;;;;;13.50;3.80;;;;;;;;;;5071689;28;20039;-69
2023/08/14 09:45:23;;;;;;;11.13;3.50;;;;;;;;;;5078884;28;20323;-70
2023/08/14 09:47:50;;;;;;;10.98;3.38;;;;;;;;;;5080255;28;20064;-70
2023/08/14 09:50:16;;;;;;;10.00;3.45;;;;;;;;;;5079468;28;20035;-70
2023/08/14 09:52:43;;;;;;;10.45;3.92;;;;;;;;;;5074860;28;20070;-70
2023/08/14 09:55:09;;;;;;;8.68;3.00;;;;;;;;;;5073669;28;20040;-71
2023/08/14 09:57:35;;;;;;;11.90;4.20;;;;;;;;;;5077025;28;20033;-71
2023/08/14 10:00:01;;;;;;;11.10;3.67;;;;;;;;;;5057418;28;20145;-70
2023/08/14 10:02:32;;;;;;;12.00;3.70;;;;;;;;;;5086840;28;20028;-71
2023/08/14 10:05:00;;;;;;;11.70;3.75;;;;;;;;;;5082731;28;20036;-71
2023/08/14 10:07:26;;;;;;;8.52;3.28;;;;;;;;;;5072871;28;20043;-70
2023/08/14 10:09:56;;;;;;;10.63;3.70;;;;;;;;;;5078734;28;20039;-70
2023/08/14 10:12:24;;;;;;;11.13;3.50;;;;;;;;;;5055481;28;21476;-70
2023/08/14 10:15:00;;;;;;;8.68;3.00;;;;;;;;;;5060789;28;20049;-71
2023/08/14 10:17:31;;;;;;;13.35;3.50;;;;;;;;;;5093602;28;20105;-69
2023/08/14 10:20:00;;;;;;;12.30;3.53;;;;;;;;;;5082840;28;20114;-70
2023/08/14 10:22:28;;;;;;;8.50;2.83;;;;;;;;;;5089755;28;20035;-71
2023/08/14 10:24:54;;;;;;;9.65;2.95;;;;;;;;;;5081968;28;21371;-70
2023/08/14 10:27:21;;;;;;;8.25;3.05;;;;;;;;;;5083481;28;20036;-69
2023/08/14 10:29:48;;;;;;;10.95;2.63;;;;;;;;;;5073626;28;20033;-68
2023/08/14 10:32:15;;;;;;;9.80;2.72;;;;;;;;;;5081355;28;20390;-69
2023/08/14 10:34:41;;;;;;;10.70;3.83;;;;;;;;;;5071904;28;20117;-71
2023/08/14 10:37:08;;;;;;;9.25;3.08;;;;;;;;;;5082171;28;20106;-68
2023/08/14 10:39:34;;;;;;;6.75;2.40;;;;;;;;;;5070496;28;20080;-69
2023/08/14 10:42:01;;;;;;;7.70;2.22;;;;;;;;;;5080951;28;20020;-69
2023/08/14 10:44:36;;;;;;;7.80;2.35;;;;;;;;;;5085161;28;20024;-70
2023/08/14 10:47:06;;;;;;;7.68;2.70;;;;;;;;;;5075607;28;20032;-70
2023/08/14 10:49:45;;;;;;;8.82;2.47;;;;;;;;;;5054685;28;20054;-69
2023/08/14 10:52:15;;;;;;;7.18;2.50;;;;;;;;;;5072709;28;20059;-70
2023/08/14 10:54:44;;;;;;;9.50;2.72;;;;;;;;;;5074289;28;20398;-70
2023/08/14 10:57:12;;;;;;;6.68;2.08;;;;;;;;;;5078686;28;20160;-73
2023/08/14 10:59:39;;;;;;;8.70;2.60;;;;;;;;;;5071931;28;20039;-70
2023/08/14 11:02:12;;;;;;;9.75;2.63;;;;;;;;;;5079643;28;20110;-70
2023/08/14 11:05:06;;;;;;;11.75;3.03;;;;;;;;;;5080471;28;20027;-70
2023/08/14 11:07:34;;;;;;;7.47;2.30;;;;;;;;;;5082117;28;20024;-70
2023/08/14 11:10:03;;;;;;;7.90;2.40;;;;;;;;;;5086530;28;20040;-69
2023/08/14 11:12:29;;;;;;;7.03;2.53;;;;;;;;;;5087764;28;20393;-70
2023/08/14 11:14:57;;;;;;;10.50;2.30;;;;;;;;;;5065079;28;20090;-70
2023/08/14 11:17:24;;;;;;;9.60;3.05;;;;;;;;;;5091503;28;20476;-70
2023/08/14 11:19:51;;;;;;;8.73;2.60;;;;;;;;;;5078770;28;20052;-70
2023/08/14 11:22:17;;;;;;;11.73;2.72;;;;;;;;;;5079003;28;20046;-69
2023/08/14 11:24:43;;;;;;;9.32;2.22;;;;;;;;;;5091289;28;20044;-72
2023/08/14 11:27:09;;;;;;;10.73;2.63;;;;;;;;;;5092438;28;20034;-71
2023/08/14 11:29:36;;;;;;;8.13;2.83;;;;;;;;;;5081720;28;20331;-69
2023/08/14 11:32:02;;;;;;;9.57;2.85;;;;;;;;;;5059484;28;20039;-69
2023/08/14 11:34:32;;;;;;;9.23;2.78;;;;;;;;;;5062610;28;20059;-70
2023/08/14 11:37:04;;;;;;;7.30;2.13;;;;;;;;;;5077932;28;20051;-70
2023/08/14 11:39:30;;;;;;;9.00;2.40;;;;;;;;;;5083332;28;20036;-70
2023/08/14 11:41:56;;;;;;;9.20;2.58;;;;;;;;;;5078370;28;20175;-69
2023/08/14 11:44:22;;;;;;;8.18;2.22;;;;;;;;;;5079513;28;20028;-71
2023/08/14 11:46:49;;;;;;;8.65;2.45;;;;;;;;;;5089859;28;20063;-70
2023/08/14 11:49:15;;;;;;;5.05;2.10;;;;;;;;;;5074616;28;20047;-71
2023/08/14 11:51:42;;;;;;;7.05;1.85;;;;;;;;;;5073131;28;20675;-70
2023/08/14 11:54:08;;;;;;;6.45;2.33;;;;;;;;;;5073281;28;20111;-70
2023/08/14 11:56:37;;;;;;;5.90;2.20;;;;;;;;;;5074073;28;20048;-70
2023/08/14 11:59:04;;;;;;;8.43;1.90;;;;;;;;;;5082065;28;20031;-70
2023/08/14 12:01:31;;;;;;;12.07;2.80;;;;;;;;;;5076311;28;20104;-70
2023/08/14 12:03:57;;;;;;;9.07;2.50;;;;;;;;;;5085822;28;20123;-70
2023/08/14 12:06:23;;;;;;;9.75;3.13;;;;;;;;;;5091295;28;20448;-70
2023/08/14 12:08:50;;;;;;;16.90;6.68;;;;;;;;;;5090731;28;20082;-70
2023/08/14 12:11:17;;;;;;;9.77;2.90;;;;;;;;;;5089701;28;20036;-71
2023/08/14 12:13:52;;;;;;;8.80;2.58;;;;;;;;;;5074744;28;20033;-71
2023/08/14 12:16:21;;;;;;;6.03;1.98;;;;;;;;;;5072480;28;20025;-69
2023/08/14 12:18:48;;;;;;;9.13;2.50;;;;;;;;;;5075790;28;20028;-70
2023/08/14 12:21:14;;;;;;;5.50;2.33;;;;;;;;;;5080711;28;20339;-70
2023/08/14 12:23:47;;;;;;;9.07;2.53;;;;;;;;;;5081962;28;20044;-70
2023/08/14 12:26:14;;;;;;;7.18;2.20;;;;;;;;;;5074183;28;20036;-70
2023/08/14 12:28:40;;;;;;;6.35;2.00;;;;;;;;;;5073853;28;20029;-71
2023/08/14 12:31:07;;;;;;;11.13;2.42;;;;;;;;;;5077190;28;20032;-69
2023/08/14 12:33:33;;;;;;;6.22;2.20;;;;;;;;;;5078163;28;20843;-70
2023/08/14 12:35:59;;;;;;;13.93;2.40;;;;;;;;;;5078766;28;20037;-70
2023/08/14 12:38:25;;;;;;;6.63;2.30;;;;;;;;;;5056877;28;20025;-70
2023/08/14 12:40:51;;;;;;;9.98;2.00;;;;;;;;;;5065359;28;20035;-70
2023/08/14 12:43:18;;;;;;;8.65;2.25;;;;;;;;;;5061281;28;20035;-70
2023/08/14 12:45:44;;;;;;;8.05;2.35;;;;;;;;;;5076239;28;20489;-70
2023/08/14 12:48:10;;;;;;;8.23;2.22;;;;;;;;;;5075435;28;20028;-69
2023/08/14 12:50:36;;;;;;;6.93;2.15;;;;;;;;;;5071068;28;20075;-70
2023/08/14 12:53:06;;;;;;;8.90;2.03;;;;;;;;;;5050996;28;20037;-71
2023/08/14 12:55:32;;;;;;;6.63;1.90;;;;;;;;;;5068388;28;20509;-70
2023/08/14 12:57:59;;;;;;;10.05;2.10;;;;;;;;;;5070032;28;20033;-71
2023/08/14 13:00:25;;;;;;;5.68;2.00;;;;;;;;;;5051811;28;20090;-70
2023/08/14 13:02:51;;;;;;;5.25;2.10;;;;;;;;;;5051947;28;20485;-70
2023/08/14 13:05:17;;;;;;;7.40;2.00;;;;;;;;;;5069391;28;20039;-69
2023/08/14 13:07:43;;;;;;;10.40;2.10;;;;;;;;;;5068942;28;20029;-72
2023/08/14 13:10:09;;;;;;;4.93;1.88;;;;;;;;;;5077064;28;20036;-70
2023/08/14 13:12:36;;;;;;;8.45;2.40;;;;;;;;;;5089004;28;20031;-69
2023/08/14 13:15:02;;;;;;;11.40;2.20;;;;;;;;;;5071573;28;20058;-70
2023/08/14 13:17:28;;;;;;;5.13;2.10;;;;;;;;;;5089902;28;20028;-70
2023/08/14 13:19:54;;;;;;;6.88;2.30;;;;;;;;;;5088622;28;20024;-69
2023/08/14 13:22:20;;;;;;;7.90;2.00;;;;;;;;;;5089970;28;20507;-70
2023/08/14 13:24:46;;;;;;;6.03;2.58;;;;;;;;;;5058224;28;20028;-70
2023/08/14 13:27:13;;;;;;;8.10;2.25;;;;;;;;;;5071747;28;20040;-71
2023/08/14 13:29:39;;;;;;;5.63;1.95;;;;;;;;;;5083634;28;20029;-70
2023/08/14 13:32:05;;;;;;;10.45;2.38;;;;;;;;;;5075138;28;20043;-70
2023/08/14 13:34:31;;;;;;;8.50;2.20;;;;;;;;;;5085625;28;20036;-70
2023/08/14 13:36:57;;;;;;;9.55;1.90;;;;;;;;;;5081224;28;20578;-71
2023/08/14 13:39:24;;;;;;;6.10;2.20;;;;;;;;;;5080441;28;20024;-70
2023/08/14 13:41:52;;;;;;;5.72;2.50;;;;;;;;;;5056209;28;20029;-70
2023/08/14 13:44:18;;;;;;;11.48;2.20;;;;;;;;;;5076532;28;20098;-70
2023/08/14 13:46:45;;;;;;;8.40;2.00;;;;;;;;;;5088402;28;20393;-69
2023/08/14 13:49:11;;;;;;;6.63;1.90;;;;;;;;;;5081783;28;20032;-71
2023/08/14 13:51:37;;;;;;;7.57;2.47;;;;;;;;;;5076548;28;20032;-71
2023/08/14 13:54:03;;;;;;;9.05;2.22;;;;;;;;;;5056292;28;20409;-70
2023/08/14 13:56:29;;;;;;;8.85;2.00;;;;;;;;;;5078948;28;20059;-69
2023/08/14 13:58:55;;;;;;;6.25;1.70;;;;;;;;;;5071589;28;20032;-69
2023/08/14 14:01:21;;;;;;;8.07;2.42;;;;;;;;;;5066532;28;20057;-70
2023/08/14 14:03:47;;;;;;;7.32;2.10;;;;;;;;;;5069247;28;20044;-70
2023/08/14 14:06:14;;;;;;;6.82;2.15;;;;;;;;;;5070288;28;20106;-70
2023/08/14 14:08:40;;;;;;;6.53;1.92;;;;;;;;;;5082355;28;20028;-69
2023/08/14 14:11:06;;;;;;;5.90;2.08;;;;;;;;;;5053262;28;20040;-69
2023/08/14 14:13:32;;;;;;;7.63;1.98;;;;;;;;;;5071826;28;20033;-70
2023/08/14 14:15:59;;;;;;;6.55;2.05;;;;;;;;;;5070713;28;20040;-70
2023/08/14 14:18:25;;;;;;;11.07;2.03;;;;;;;;;;5073895;28;20056;-69
2023/08/14 14:20:51;;;;;;;7.82;2.70;;;;;;;;;;5082216;28;20036;-70
2023/08/14 14:23:18;;;;;;;5.93;1.90;;;;;;;;;;5059232;28;20270;-69
2023/08/14 14:25:45;;;;;;;6.28;1.88;;;;;;;;;;5056875;28;20036;-75